createdAt,value
2022-12-18T00:01:40.904Z,19.67
2022-12-18T00:04:08.321Z,18.83
2022-12-18T00:06:35.075Z,19.83
2022-12-18T00:09:01.346Z,19.63
2022-12-18T00:11:28.602Z,20.53
2022-12-18T00:13:55.158Z,20.37
2022-12-18T00:16:22.140Z,20.20
2022-12-18T00:18:52.252Z,19.03
2022-12-18T00:21:18.445Z,20.95
2022-12-18T00:23:44.700Z,19.77
2022-12-18T00:26:23.889Z,20.03
2022-12-18T00:28:49.774Z,19.83
2022-12-18T00:31:17.496Z,20.60
2022-12-18T00:33:43.338Z,18.33
2022-12-18T00:36:16.541Z,19.97
2022-12-18T00:38:43.191Z,18.67
2022-12-18T00:41:09.553Z,19.43
2022-12-18T00:43:35.983Z,20.47
2022-12-18T00:46:02.067Z,17.03
2022-12-18T00:48:27.861Z,18.97
2022-12-18T00:50:53.646Z,18.23
2022-12-18T00:53:19.394Z,18.40
2022-12-18T00:55:45.681Z,18.10
2022-12-18T00:58:12.473Z,19.07
2022-12-18T01:00:38.404Z,18.60
2022-12-18T01:03:04.891Z,17.73
2022-12-18T01:05:30.778Z,20.03
2022-12-18T01:07:56.691Z,20.77
2022-12-18T01:10:22.717Z,21.30
2022-12-18T01:12:48.576Z,21.57
2022-12-18T01:15:15.438Z,21.17
2022-12-18T01:17:41.233Z,20.03
2022-12-18T01:20:07.323Z,20.37
2022-12-18T01:22:33.041Z,20.87
2022-12-18T01:24:58.791Z,20.33
2022-12-18T01:27:24.582Z,21.73
2022-12-18T01:29:50.365Z,18.90
2022-12-18T01:32:16.113Z,19.67
2022-12-18T01:34:41.856Z,21.37
2022-12-18T01:37:07.728Z,20.93
2022-12-18T01:39:33.527Z,20.30
2022-12-18T01:42:02.858Z,20.33
2022-12-18T01:44:47.259Z,22.03
2022-12-18T01:47:18.601Z,18.87
2022-12-18T01:49:44.374Z,18.77
2022-12-18T01:52:10.108Z,18.60
2022-12-18T01:54:35.828Z,20.07
2022-12-18T01:57:01.629Z,20.40
2022-12-18T01:59:28.159Z,21.43
2022-12-18T02:01:54.073Z,20.77
2022-12-18T02:04:22.944Z,20.13
2022-12-18T02:06:51.299Z,21.77
2022-12-18T02:09:38.020Z,20.20
2022-12-18T02:12:14.970Z,21.67
2022-12-18T02:14:44.671Z,17.90
2022-12-18T02:17:21.515Z,18.48
2022-12-18T02:20:05.987Z,20.70
2022-12-18T02:22:34.467Z,19.47
2022-12-18T02:25:03.291Z,20.53
2022-12-18T02:27:30.326Z,20.27
2022-12-18T02:29:58.755Z,19.23
2022-12-18T02:32:27.057Z,18.53
2022-12-18T02:34:54.495Z,18.17
2022-12-18T02:37:21.269Z,19.47
2022-12-18T02:39:47.795Z,23.33
2022-12-18T02:42:13.825Z,19.83
2022-12-18T02:44:44.699Z,20.67
2022-12-18T02:47:12.434Z,18.97
2022-12-18T02:49:50.597Z,19.50
2022-12-18T02:52:35.387Z,19.23
2022-12-18T02:55:12.603Z,19.67
2022-12-18T02:57:46.487Z,18.60
2022-12-18T03:00:12.262Z,19.40
2022-12-18T03:02:38.043Z,21.43
2022-12-18T03:05:20.931Z,22.07
2022-12-18T03:07:53.429Z,21.33
2022-12-18T03:10:21.103Z,20.50
2022-12-18T03:12:54.935Z,23.07
2022-12-18T03:15:26.136Z,20.47
2022-12-18T03:18:05.001Z,19.20
2022-12-18T03:20:32.435Z,20.17
2022-12-18T03:23:02.788Z,19.13
2022-12-18T03:25:29.692Z,20.95
2022-12-18T03:27:58.176Z,22.43
2022-12-18T03:30:24.464Z,19.90
2022-12-18T03:32:50.224Z,22.13
2022-12-18T03:35:21.671Z,21.77
2022-12-18T03:37:47.428Z,21.00
2022-12-18T03:40:13.210Z,22.03
2022-12-18T03:42:44.932Z,19.13
2022-12-18T03:45:18.751Z,19.83
2022-12-18T03:48:03.344Z,21.07
2022-12-18T03:50:52.336Z,18.60
2022-12-18T03:53:24.276Z,19.37
2022-12-18T03:55:50.855Z,18.40
2022-12-18T03:58:18.778Z,19.73
2022-12-18T04:00:44.605Z,19.30
2022-12-18T04:03:11.194Z,18.80
2022-12-18T04:05:37.548Z,17.80
2022-12-18T04:08:03.443Z,20.10
2022-12-18T04:10:29.816Z,18.27
2022-12-18T04:12:58.697Z,17.10
2022-12-18T04:15:24.861Z,17.47
2022-12-18T04:17:50.712Z,19.30
2022-12-18T04:20:16.900Z,17.33
2022-12-18T04:22:42.628Z,17.80
2022-12-18T04:25:11.621Z,16.60
2022-12-18T04:27:37.356Z,18.97
2022-12-18T04:30:03.574Z,19.17
2022-12-18T04:32:29.341Z,19.27
2022-12-18T04:34:55.235Z,16.37
2022-12-18T04:37:20.971Z,18.77
2022-12-18T04:39:46.944Z,17.20
2022-12-18T04:42:12.728Z,16.53
2022-12-18T04:44:38.502Z,18.50
2022-12-18T04:47:04.585Z,18.13
2022-12-18T04:49:30.339Z,18.53
2022-12-18T04:51:56.135Z,19.07
2022-12-18T04:54:21.914Z,19.97
2022-12-18T04:56:47.640Z,18.43
2022-12-18T04:59:13.498Z,18.07
2022-12-18T05:01:39.342Z,17.67
2022-12-18T05:04:05.325Z,19.60
2022-12-18T05:06:31.126Z,18.43
2022-12-18T05:08:56.838Z,17.80
2022-12-18T05:11:22.701Z,17.30
2022-12-18T05:13:49.485Z,16.70
2022-12-18T05:16:15.396Z,18.20
2022-12-18T05:18:41.680Z,17.60
2022-12-18T05:21:08.141Z,18.13
2022-12-18T05:23:35.591Z,18.40
2022-12-18T05:26:02.753Z,18.87
2022-12-18T05:28:29.618Z,18.43
2022-12-18T05:30:57.170Z,17.53
2022-12-18T05:33:23.786Z,20.67
2022-12-18T05:35:56.739Z,17.77
2022-12-18T05:38:23.373Z,19.03
2022-12-18T05:40:49.972Z,15.97
2022-12-18T05:43:20.985Z,18.93
2022-12-18T05:45:47.272Z,20.33
2022-12-18T05:48:13.089Z,19.80
2022-12-18T05:50:39.907Z,18.63
2022-12-18T05:53:05.811Z,17.97
2022-12-18T05:55:35.383Z,18.50
2022-12-18T05:58:01.733Z,18.67
2022-12-18T06:00:28.092Z,19.07
2022-12-18T06:02:53.881Z,16.77
2022-12-18T06:05:19.693Z,19.67
2022-12-18T06:07:45.889Z,17.87
2022-12-18T06:10:12.037Z,17.57
2022-12-18T06:12:37.969Z,17.63
2022-12-18T06:15:04.779Z,17.73
2022-12-18T06:17:31.130Z,19.97
2022-12-18T06:19:57.016Z,19.57
2022-12-18T06:22:22.768Z,19.60
2022-12-18T06:24:48.574Z,18.60
2022-12-18T06:27:14.529Z,18.30
2022-12-18T06:29:40.373Z,19.23
2022-12-18T06:32:06.203Z,20.23
2022-12-18T06:34:32.669Z,17.23
2022-12-18T06:36:58.510Z,18.93
2022-12-18T06:39:24.279Z,19.80
2022-12-18T06:41:50.040Z,16.57
2022-12-18T06:44:15.878Z,18.63
2022-12-18T06:46:41.627Z,19.63
2022-12-18T06:49:09.479Z,19.30
2022-12-18T06:51:35.407Z,17.93
2022-12-18T06:54:01.232Z,20.70
2022-12-18T06:56:27.099Z,18.07
2022-12-18T06:58:53.017Z,19.30
2022-12-18T07:01:18.905Z,18.53
2022-12-18T07:03:45.371Z,20.03
2022-12-18T07:06:13.678Z,18.63
2022-12-18T07:08:39.407Z,19.90
2022-12-18T07:11:05.442Z,18.67
2022-12-18T07:13:31.445Z,19.80
2022-12-18T07:16:03.563Z,17.67
2022-12-18T07:18:29.309Z,17.63
2022-12-18T07:20:55.038Z,18.73
2022-12-18T07:23:20.773Z,18.00
2022-12-18T07:25:46.651Z,18.43
2022-12-18T07:28:17.206Z,21.27
2022-12-18T07:30:43.321Z,19.33
2022-12-18T07:33:09.044Z,20.17
2022-12-18T07:35:37.535Z,19.33
2022-12-18T07:38:03.282Z,19.77
2022-12-18T07:40:29.039Z,19.20
2022-12-18T07:42:54.855Z,21.47
2022-12-18T07:45:20.613Z,20.90
2022-12-18T07:47:46.549Z,20.53
2022-12-18T07:50:13.409Z,21.17
2022-12-18T07:52:39.154Z,21.83
2022-12-18T07:55:05.178Z,19.70
2022-12-18T07:57:50.007Z,19.67
2022-12-18T08:00:16.881Z,19.90
2022-12-18T08:02:42.824Z,20.40
2022-12-18T08:05:08.955Z,19.57
2022-12-18T08:07:35.403Z,19.60
2022-12-18T08:10:03.697Z,17.73
2022-12-18T08:12:34.526Z,19.93
2022-12-18T08:15:10.767Z,18.73
2022-12-18T08:17:39.571Z,21.30
2022-12-18T08:22:46.344Z,18.38
2022-12-18T08:25:38.312Z,18.67
2022-12-18T08:30:45.988Z,18.30
2022-12-18T08:33:16.529Z,18.67
2022-12-18T08:35:46.005Z,19.35
2022-12-18T08:41:06.446Z,18.20
2022-12-18T08:43:53.901Z,18.67
2022-12-18T08:46:28.071Z,17.77
2022-12-18T08:49:04.329Z,16.97
2022-12-18T08:54:28.505Z,16.03
2022-12-18T08:56:54.738Z,19.03
2022-12-18T08:59:21.892Z,16.03
2022-12-18T09:01:49.131Z,17.03
2022-12-18T09:04:28.069Z,15.40
2022-12-18T09:06:58.475Z,15.47
2022-12-18T09:12:11.641Z,17.47
2022-12-18T09:14:38.945Z,18.10
2022-12-18T09:17:11.713Z,17.63
2022-12-18T09:22:27.266Z,16.05
2022-12-18T09:25:15.529Z,16.57
2022-12-18T09:33:08.122Z,18.13
2022-12-18T09:38:24.230Z,18.00
2022-12-18T09:43:47.915Z,18.63
2022-12-18T09:46:21.251Z,16.30
2022-12-18T09:51:48.039Z,16.00
2022-12-18T09:57:18.120Z,16.17
2022-12-18T10:02:37.637Z,17.13
2022-12-18T10:05:12.820Z,17.27
2022-12-18T10:10:47.844Z,17.57
2022-12-18T10:13:24.070Z,17.83
2022-12-18T10:19:09.323Z,18.83
2022-12-18T10:25:06.871Z,19.60
2022-12-18T10:27:37.529Z,20.93
2022-12-18T10:43:52.926Z,20.10
2022-12-18T10:49:02.036Z,19.60
2022-12-18T10:51:34.742Z,18.37
2022-12-18T10:57:34.641Z,16.43
2022-12-18T11:00:25.844Z,14.83
2022-12-18T11:02:54.102Z,14.30
2022-12-18T11:05:35.053Z,13.32
2022-12-18T11:13:41.609Z,14.87
2022-12-18T11:19:25.637Z,16.60
2022-12-18T11:29:50.293Z,15.80
2022-12-18T11:32:15.989Z,14.03
2022-12-18T13:21:40.193Z,14.80
2022-12-18T22:58:22.996Z,17.33
2022-12-18T23:00:48.732Z,18.67
2022-12-18T23:03:14.544Z,16.70
2022-12-18T23:05:40.308Z,16.67
2022-12-18T23:08:06.035Z,18.80
2022-12-18T23:10:31.747Z,17.73
2022-12-18T23:12:57.490Z,16.57
2022-12-18T23:15:26.026Z,16.90
2022-12-18T23:17:54.231Z,16.90
2022-12-18T23:20:19.961Z,17.60
2022-12-18T23:22:45.678Z,16.20
2022-12-18T23:25:11.407Z,16.87
2022-12-18T23:27:37.135Z,17.57
2022-12-18T23:30:03.141Z,17.27
2022-12-18T23:32:28.888Z,17.67
2022-12-18T23:34:54.613Z,17.63
2022-12-18T23:37:49.967Z,16.90
2022-12-18T23:40:06.462Z,15.90
2022-12-18T23:42:32.178Z,16.50
2022-12-18T23:44:57.906Z,16.87
2022-12-18T23:47:25.449Z,16.33
2022-12-18T23:49:51.177Z,15.57
2022-12-18T23:52:16.992Z,17.33
2022-12-18T23:54:42.799Z,15.13
2022-12-18T23:57:08.547Z,16.47
2022-12-18T23:59:34.361Z,16.53
